Mission Field Livingston US
ICAO: KLVM
IATA: LVM
Category: Medium
Scheduled Services: No

Elevation: 4660 ft
TransAlt. 18000 ft.

Airport Communications:
ASOS:135.275
GREAT FALLS RDO:122.2
CTAF/UNICOM:123

KLVM Zoom In..

Runways:

(A) RW 04 length 5701 ft width 75 ft
---- / hdg 39

(B) RW 08 length 3762 ft width 125 ft
---- / hdg 78

(C) RW 13 length 2724 ft width 120 ft
---- / hdg 132

(D) RW 22 length 5701 ft width 75 ft
---- / hdg 219

(E) RW 26 length 3762 ft width 125 ft
---- / hdg 258

(F) RW 31 length 2724 ft width 120 ft
---- / hdg 312

Location; KLVM
Day. 25 / Time. 12.53 Zulu
* Altimeter: 29.71
* Temperature: 03° c. 37.4°f.
* Wind from: 220° Speed 29 kn with Gusts up to 43 kn.
Dewpoint: -08° c.
Visibility: 10 Statute Miles.
Clouds: Clear (automated report).

KLVM 251253Z AUTO 22029G43KT 10SM CLR 03/M08 A2971 RMK AO2 PK WND 21055/1207 SLP073 T00281083

Going to: --> -->


Wind From 220°
Speed 29 kn.

 
 
jpsmedia worldairports.se 2020   terms of use